createdAt,value
2023-04-20T00:03:46.662Z,16.13
2023-04-20T00:08:48.382Z,15.68
2023-04-20T00:13:50.051Z,13.20
2023-04-20T00:18:52.252Z,13.65
2023-04-20T00:23:53.896Z,13.98
2023-04-20T00:28:55.539Z,14.55
2023-04-20T00:33:57.237Z,13.45
2023-04-20T00:38:59.363Z,12.88
2023-04-20T00:44:03.802Z,13.02
2023-04-20T00:49:06.708Z,14.50
2023-04-20T00:54:08.460Z,11.32
2023-04-20T00:59:10.368Z,13.30
2023-04-20T01:04:12.223Z,12.55
2023-04-20T01:09:13.915Z,15.18
2023-04-20T01:14:15.543Z,16.95
2023-04-20T01:19:17.379Z,16.30
2023-04-20T01:24:19.203Z,18.85
2023-04-20T01:29:21.004Z,23.27
2023-04-20T01:34:22.647Z,16.98
2023-04-20T01:39:24.563Z,16.42
2023-04-20T01:44:26.221Z,18.77
2023-04-20T01:49:28.592Z,18.13
2023-04-20T01:54:30.236Z,19.17
2023-04-20T01:59:31.916Z,16.30
2023-04-20T02:04:36.739Z,19.92
2023-04-20T02:09:38.358Z,17.23
2023-04-20T02:14:40.024Z,16.80
2023-04-20T02:19:44.427Z,20.17
2023-04-20T02:24:46.096Z,21.60
2023-04-20T02:29:49.428Z,19.10
2023-04-20T02:34:51.186Z,18.52
2023-04-20T02:39:52.816Z,16.35
2023-04-20T02:44:54.429Z,14.60
2023-04-20T02:49:56.163Z,17.45
2023-04-20T02:54:58.157Z,16.20
2023-04-20T03:00:00.169Z,16.25
2023-04-20T03:05:14.030Z,13.60
2023-04-20T03:10:18.792Z,17.08
2023-04-20T03:15:41.014Z,15.10
2023-04-20T03:21:02.957Z,16.83
2023-04-20T03:26:06.389Z,18.75
2023-04-20T03:31:15.949Z,18.70
2023-04-20T03:36:18.581Z,16.40
2023-04-20T03:41:20.454Z,13.20
2023-04-20T03:46:23.333Z,16.20
2023-04-20T03:51:25.309Z,13.93
2023-04-20T03:56:27.339Z,15.32
2023-04-20T04:01:30.068Z,13.65
2023-04-20T04:06:32.634Z,15.10
2023-04-20T04:11:34.446Z,16.05
2023-04-20T04:16:36.246Z,15.40
2023-04-20T04:21:38.052Z,14.35
2023-04-20T04:26:40.399Z,16.02
2023-04-20T04:31:42.336Z,15.07
2023-04-20T04:36:50.345Z,16.83
2023-04-20T04:41:57.834Z,17.98
2023-04-20T04:47:09.567Z,19.33
2023-04-20T04:52:11.300Z,18.67
2023-04-20T04:57:13.122Z,20.85
2023-04-20T05:02:14.847Z,18.08
2023-04-20T05:07:17.439Z,21.25
2023-04-20T05:12:19.599Z,23.13
2023-04-20T05:17:21.521Z,26.85
2023-04-20T05:22:23.343Z,25.27
2023-04-20T05:27:25.198Z,30.48
2023-04-20T05:32:27.117Z,34.10
2023-04-20T05:37:28.946Z,32.58
2023-04-20T05:42:30.815Z,27.75
2023-04-20T05:47:32.725Z,30.02
2023-04-20T05:52:34.754Z,26.75
2023-04-20T05:57:42.741Z,25.42
2023-04-20T06:02:44.827Z,26.67
2023-04-20T06:07:47.174Z,25.40
2023-04-20T06:12:49.118Z,29.05
2023-04-20T06:17:50.937Z,25.95
2023-04-20T06:22:52.820Z,27.58
2023-04-20T06:27:54.606Z,23.23
2023-04-20T06:32:57.037Z,24.27
2023-04-20T06:37:59.627Z,23.27
2023-04-20T06:43:01.484Z,17.50
2023-04-20T06:48:03.773Z,15.60
2023-04-20T06:53:05.813Z,14.77
2023-04-20T06:58:07.657Z,15.57
2023-04-20T07:03:09.728Z,13.02
2023-04-20T07:08:11.712Z,12.55
2023-04-20T07:13:13.489Z,12.95
2023-04-20T07:18:15.341Z,12.15
2023-04-20T07:23:17.156Z,11.90
2023-04-20T07:28:18.955Z,11.80
2023-04-20T07:33:21.221Z,11.88
2023-04-20T07:38:23.066Z,11.25
2023-04-20T07:43:24.896Z,10.43
2023-04-20T07:48:26.723Z,13.40
2023-04-20T07:53:31.706Z,13.38
2023-04-20T07:58:33.534Z,13.70
2023-04-20T08:03:36.402Z,14.55
2023-04-20T08:08:38.316Z,14.73
2023-04-20T08:13:41.426Z,14.50
2023-04-20T08:18:43.218Z,14.20
2023-04-20T08:23:45.049Z,15.52
2023-04-20T08:28:46.915Z,15.73
2023-04-20T08:33:48.886Z,16.27
2023-04-20T08:39:08.117Z,16.05
2023-04-20T08:44:10.079Z,16.40
2023-04-20T08:49:14.680Z,16.25
2023-04-20T08:54:17.022Z,17.33
2023-04-20T08:59:19.218Z,17.52
2023-04-20T09:04:27.148Z,18.95
2023-04-20T09:09:29.410Z,18.42
2023-04-20T09:14:41.974Z,20.40
2023-04-20T09:19:45.195Z,18.08
2023-04-20T09:24:47.099Z,19.20
2023-04-20T09:30:04.054Z,18.10
2023-04-20T09:35:07.704Z,19.42
2023-04-20T09:40:10.346Z,19.23
2023-04-20T09:45:14.789Z,18.17
2023-04-20T09:50:26.897Z,20.05
2023-04-20T09:55:34.248Z,19.98
2023-04-20T10:00:36.117Z,19.90
2023-04-20T10:05:39.747Z,19.80
2023-04-20T10:10:49.958Z,21.58
2023-04-20T10:15:51.888Z,21.65
2023-04-20T10:21:07.049Z,20.00
2023-04-20T10:26:08.900Z,19.23
2023-04-20T10:31:17.043Z,19.23
2023-04-20T10:36:27.614Z,18.73
2023-04-20T10:41:29.438Z,17.92
2023-04-20T10:46:31.694Z,17.67
2023-04-20T10:51:33.484Z,18.27
2023-04-20T10:56:46.319Z,18.50
2023-04-20T11:01:48.952Z,17.83
2023-04-20T11:06:50.888Z,17.17
2023-04-20T11:12:00.439Z,18.48
2023-04-20T11:17:02.610Z,19.08
2023-04-20T11:22:06.470Z,20.05
2023-04-20T11:27:08.486Z,20.05
2023-04-20T11:32:11.395Z,18.95
2023-04-20T11:37:13.903Z,23.05
2023-04-20T11:42:15.723Z,20.75
2023-04-20T11:47:17.548Z,19.60
2023-04-20T11:52:19.345Z,19.58
2023-04-20T11:57:23.938Z,18.52
2023-04-20T12:02:26.035Z,18.75
2023-04-20T12:07:28.363Z,18.60
2023-04-20T12:12:30.195Z,19.42
2023-04-20T12:17:32.054Z,20.55
2023-04-20T12:22:33.890Z,19.88
2023-04-20T12:27:35.813Z,19.42
2023-04-20T12:32:37.798Z,22.65
2023-04-20T12:37:39.634Z,21.02
2023-04-20T12:42:41.509Z,23.70
2023-04-20T12:47:43.342Z,22.92
2023-04-20T12:52:45.410Z,22.33
2023-04-20T12:57:47.233Z,22.15
2023-04-20T13:02:50.108Z,20.58
2023-04-20T13:07:52.146Z,24.05
2023-04-20T13:12:53.994Z,22.02
2023-04-20T13:17:55.947Z,22.20
2023-04-20T13:23:01.206Z,23.20
2023-04-20T13:28:03.809Z,25.75
2023-04-20T13:33:06.719Z,27.63
2023-04-20T13:38:08.655Z,28.02
2023-04-20T13:43:10.596Z,29.50
2023-04-20T13:48:12.533Z,33.38
2023-04-20T13:53:14.404Z,31.17
2023-04-20T13:58:16.286Z,30.80
2023-04-20T14:03:20.312Z,31.55
2023-04-20T14:08:23.417Z,32.60
2023-04-20T14:13:25.834Z,30.08
2023-04-20T14:18:27.734Z,27.52
2023-04-20T14:23:29.531Z,33.22
2023-04-20T14:28:33.184Z,32.08
2023-04-20T14:33:35.348Z,28.70
2023-04-20T14:38:37.416Z,29.48
2023-04-20T14:43:39.249Z,34.75
2023-04-20T14:48:41.306Z,33.22
2023-04-20T14:53:43.317Z,34.38
2023-04-20T14:58:45.240Z,35.60
2023-04-20T15:03:47.318Z,37.63
2023-04-20T15:08:49.378Z,36.60
2023-04-20T15:13:52.190Z,41.60
2023-04-20T15:18:54.769Z,38.80
2023-04-20T15:23:56.598Z,40.28
2023-04-20T15:28:58.437Z,37.40
2023-04-20T15:34:00.827Z,36.58
2023-04-20T15:39:02.682Z,40.63
2023-04-20T15:44:04.588Z,40.47
2023-04-20T15:49:06.425Z,44.90
2023-04-20T15:54:08.217Z,41.00
2023-04-20T15:59:10.138Z,40.65
2023-04-20T16:04:12.249Z,41.10
2023-04-20T16:09:14.248Z,39.38
2023-04-20T16:14:16.261Z,44.95
2023-04-20T16:19:18.278Z,42.08
2023-04-20T16:24:20.257Z,43.13
2023-04-20T16:29:22.345Z,45.20
2023-04-20T16:34:24.553Z,39.35
2023-04-20T16:39:26.371Z,41.72
2023-04-20T16:44:28.196Z,38.20
2023-04-20T16:49:30.567Z,43.78
2023-04-20T16:54:32.409Z,41.33
2023-04-20T16:59:34.312Z,42.45
2023-04-20T17:04:36.128Z,42.83
2023-04-20T17:09:37.993Z,42.40
2023-04-20T17:14:39.869Z,41.60
2023-04-20T17:19:41.727Z,38.10
2023-04-20T17:24:43.542Z,42.92
2023-04-20T17:29:45.438Z,42.28
2023-04-20T17:34:48.786Z,42.38
2023-04-20T17:39:50.738Z,40.58
2023-04-20T17:44:52.528Z,41.03
2023-04-20T17:49:55.129Z,46.35
2023-04-20T17:54:57.763Z,47.10
2023-04-20T17:59:59.593Z,46.55
2023-04-20T18:05:01.510Z,47.55
2023-04-20T18:10:04.311Z,44.75
2023-04-20T18:15:08.324Z,52.85
2023-04-20T18:20:10.982Z,54.22
2023-04-20T18:25:12.797Z,51.17
2023-04-20T18:30:15.031Z,54.58
2023-04-20T18:35:16.926Z,53.17
2023-04-20T18:40:18.838Z,50.92
2023-04-20T18:45:21.819Z,52.67
2023-04-20T18:50:24.267Z,51.22
2023-04-20T18:55:26.194Z,49.88
2023-04-20T19:00:28.072Z,41.45
2023-04-20T19:05:30.879Z,48.33
2023-04-20T19:10:32.666Z,54.17
2023-04-20T19:15:34.820Z,51.70
2023-04-20T19:20:36.683Z,54.10
2023-04-20T19:25:38.495Z,55.15
2023-04-20T19:30:40.771Z,54.28
2023-04-20T19:35:43.568Z,54.00
2023-04-20T19:40:46.069Z,57.95
2023-04-20T19:45:47.974Z,55.03
2023-04-20T19:50:51.329Z,60.10
2023-04-20T19:55:53.156Z,66.72
2023-04-20T20:00:54.978Z,57.35
2023-04-20T20:05:56.957Z,67.45
2023-04-20T20:10:58.748Z,68.15
2023-04-20T20:16:00.724Z,58.10
2023-04-20T20:21:02.569Z,62.70
2023-04-20T20:26:04.418Z,61.53
2023-04-20T20:31:06.250Z,59.33
2023-04-20T20:36:09.080Z,50.97
2023-04-20T20:41:13.596Z,47.80
2023-04-20T20:46:15.929Z,50.88
2023-04-20T20:51:17.748Z,52.30
2023-04-20T20:56:19.560Z,50.67
2023-04-20T21:01:21.708Z,46.53
2023-04-20T21:06:23.561Z,46.45
2023-04-20T21:11:25.513Z,43.15
2023-04-20T21:16:27.577Z,39.55
2023-04-20T21:21:29.402Z,33.03
2023-04-20T21:26:35.792Z,38.08
2023-04-20T21:31:37.722Z,37.55
2023-04-20T21:36:39.581Z,35.88
2023-04-20T21:41:41.396Z,34.17
2023-04-20T21:46:43.377Z,36.25
2023-04-20T21:51:45.739Z,35.92
2023-04-20T21:56:47.638Z,34.70
2023-04-20T22:01:49.457Z,39.10
2023-04-20T22:06:53.456Z,31.52
2023-04-20T22:11:55.887Z,42.08
2023-04-20T22:16:57.726Z,41.53
2023-04-20T22:21:59.557Z,33.42
2023-04-20T22:27:02.319Z,36.33
2023-04-20T22:32:04.290Z,45.63
2023-04-20T22:37:06.460Z,37.78
2023-04-20T22:42:09.513Z,36.30
2023-04-20T22:47:11.503Z,31.02
2023-04-20T22:52:13.679Z,28.58
2023-04-20T22:57:16.086Z,29.42
2023-04-20T23:02:17.960Z,29.52
2023-04-20T23:07:21.262Z,29.88
2023-04-20T23:12:23.391Z,27.13
2023-04-20T23:17:25.429Z,31.85
2023-04-20T23:22:27.236Z,26.90
2023-04-20T23:27:29.056Z,25.70
2023-04-20T23:32:31.452Z,22.98
2023-04-20T23:37:33.329Z,26.85
2023-04-20T23:42:38.387Z,23.70
2023-04-20T23:47:40.337Z,27.05
2023-04-20T23:52:42.249Z,24.45
2023-04-20T23:57:44.194Z,25.65
